Time;durP1;ratioP1;P1;durP2;ratioP2;P2;SDS_P1;SDS_P2;PMS_P1;PMS_P2;Temp;Humidity;BMP_temperature;BMP_pressure;BME280_temperature;BME280_humidity;BME280_pressure;Samples;Min_cycle;Max_cycle;Signal;HPM_P1;HPM_P2
2022/12/08 00:01:46;;;;;;;10.98;6.47;;;;;;;3.01;100.00;97989.03;5014458;28;20133;-62
2022/12/08 00:04:11;;;;;;;10.30;7.07;;;;;;;3.32;100.00;98043.31;5001809;28;20041;-59
2022/12/08 00:09:34;;;;;;;10.60;7.00;;;;;;;3.24;100.00;98039.56;5016189;28;20609;-61
2022/12/08 00:12:00;;;;;;;10.95;7.15;;;;;;;3.00;100.00;97995.94;5002002;28;20080;-61
2022/12/08 00:14:31;;;;;;;12.60;7.22;;;;;;;3.15;100.00;98024.00;5016868;28;20064;-61
2022/12/08 00:16:57;;;;;;;12.55;7.63;;;;;;;3.17;100.00;98028.09;5000244;28;20033;-61
2022/12/08 00:19:24;;;;;;;10.95;7.28;;;;;;;3.24;100.00;98021.56;5016661;28;20037;-61
2022/12/08 00:21:50;;;;;;;12.45;7.32;;;;;;;3.23;100.00;98034.53;5000711;28;20361;-62
2022/12/08 00:24:16;;;;;;;12.55;7.15;;;;;;;3.18;100.00;98031.50;5016004;28;20537;-60
2022/12/08 00:26:42;;;;;;;11.43;7.38;;;;;;;3.21;100.00;98024.38;4986508;28;20129;-62
2022/12/08 00:29:08;;;;;;;11.70;7.25;;;;;;;3.15;100.00;98024.00;5004182;28;20236;-62
2022/12/08 00:31:33;;;;;;;11.90;7.43;;;;;;;3.19;100.00;98031.34;5000310;28;20510;-61
2022/12/08 00:33:59;;;;;;;12.20;7.18;;;;;;;3.22;100.00;98030.34;5002991;28;20045;-61
2022/12/08 00:36:25;;;;;;;11.10;6.32;;;;;;;3.18;100.00;98029.72;4993709;28;20123;-61
2022/12/08 00:38:51;;;;;;;11.13;5.63;;;;;;;3.25;100.00;98032.69;5001771;28;20497;-61
2022/12/08 00:42:10;;;;;;;11.68;7.50;;;;;;;3.22;100.00;98020.06;5015291;28;20061;-61
2022/12/08 00:44:09;;;;;;;8.13;5.40;;;;;;;3.23;100.00;98032.78;5015960;28;20085;-61
2022/12/08 00:46:35;;;;;;;11.65;7.05;;;;;;;3.25;100.00;98032.69;5000229;28;20049;-61
2022/12/08 00:49:01;;;;;;;11.07;7.30;;;;;;;3.17;100.00;98024.69;5018960;28;20689;-61
2022/12/08 00:51:26;;;;;;;9.23;5.38;;;;;;;3.19;100.00;98033.13;5002502;28;20037;-63
2022/12/08 00:53:51;;;;;;;10.30;6.90;;;;;;;3.27;100.00;98036.75;4998269;28;20491;-63
2022/12/08 00:56:17;;;;;;;9.60;6.00;;;;;;;3.30;100.00;98025.44;5002670;28;20097;-61
2022/12/08 00:58:42;;;;;;;9.73;6.35;;;;;;;3.23;100.00;98027.66;4997655;28;20053;-61
2022/12/08 01:01:12;;;;;;;10.05;6.30;;;;;;;3.23;100.00;98024.25;5015111;28;20970;-63
2022/12/08 01:03:38;;;;;;;12.07;7.20;;;;;;;3.19;100.00;98025.41;5000586;28;21556;-62
2022/12/08 01:06:05;;;;;;;12.43;6.80;;;;;;;3.20;100.00;98022.72;5005633;28;20044;-62
2022/12/08 01:08:30;;;;;;;10.20;6.85;;;;;;;3.24;100.00;98020.75;4988422;28;20041;-61
2022/12/08 01:10:56;;;;;;;10.35;6.32;;;;;;;3.28;100.00;98027.31;5005131;28;20269;-61
2022/12/08 01:13:21;;;;;;;9.98;6.47;;;;;;;3.19;100.00;98015.13;5020203;28;20029;-61
2022/12/08 01:15:46;;;;;;;9.05;5.90;;;;;;;3.25;100.00;98024.97;5005720;28;20037;-61
2022/12/08 01:18:12;;;;;;;12.00;5.90;;;;;;;3.29;100.00;98028.94;5003543;28;20116;-61
2022/12/08 01:20:37;;;;;;;11.07;6.57;;;;;;;3.30;100.00;98030.56;5018069;28;20038;-61
2022/12/08 01:23:03;;;;;;;10.98;6.38;;;;;;;3.36;100.00;98030.13;5003556;28;20041;-61
2022/12/08 01:25:28;;;;;;;9.80;5.75;;;;;;;2.97;100.00;97973.03;5018845;28;20041;-61
2022/12/08 01:27:54;;;;;;;9.57;5.95;;;;;;;3.31;100.00;98027.09;4997014;28;20039;-62
2022/12/08 01:30:20;;;;;;;10.20;6.15;;;;;;;3.32;100.00;98023.56;5003148;28;20617;-61
2022/12/08 01:32:45;;;;;;;9.65;6.10;;;;;;;3.30;100.00;98014.34;5013049;28;20045;-62
2022/12/08 01:35:12;;;;;;;10.98;6.10;;;;;;;3.30;100.00;98029.75;5005297;28;20060;-61
2022/12/08 01:37:38;;;;;;;10.70;5.82;;;;;;;3.25;100.00;98028.34;5000091;28;20129;-61
2022/12/08 01:40:04;;;;;;;10.23;6.20;;;;;;;2.98;100.00;97981.56;5001313;28;20114;-60
2022/12/08 01:42:31;;;;;;;8.13;5.40;;;;;;;3.21;100.00;98019.25;5001983;28;20492;-61
2022/12/08 01:44:59;;;;;;;9.00;5.35;;;;;;;3.30;100.00;98027.19;4986298;28;20030;-61
2022/12/08 01:47:29;;;;;;;9.63;5.13;;;;;;;2.92;100.00;97970.00;5019449;28;20034;-61
2022/12/08 01:49:55;;;;;;;7.13;4.47;;;;;;;3.23;100.00;98008.81;4995931;28;20029;-62
2022/12/08 01:52:36;;;;;;;10.35;5.15;;;;;;;3.24;100.00;98013.84;4999911;28;20104;-62
2022/12/08 01:55:09;;;;;;;8.57;5.07;;;;;;;3.01;100.00;97981.34;5014434;28;20037;-62
2022/12/08 01:57:47;;;;;;;8.68;5.50;;;;;;;3.23;100.00;98008.81;5012223;28;20072;-62
2022/12/08 02:00:15;;;;;;;8.98;5.10;;;;;;;3.25;100.00;98015.50;5015638;28;20038;-61
2022/12/08 02:02:48;;;;;;;11.32;5.25;;;;;;;3.21;100.00;98015.84;5013997;28;20036;-61
2022/12/08 02:05:14;;;;;;;7.90;4.45;;;;;;;3.27;100.00;98008.50;5008210;28;20030;-61
2022/12/08 02:07:39;;;;;;;6.68;3.78;;;;;;;3.23;100.00;98001.13;5012824;28;20034;-61
2022/12/08 02:10:05;;;;;;;11.20;5.80;;;;;;;3.01;100.00;97958.22;5010864;28;20543;-62
2022/12/08 02:12:31;;;;;;;10.18;5.78;;;;;;;3.09;100.00;97997.00;5018054;28;20037;-61
2022/12/08 02:14:57;;;;;;;11.75;5.43;;;;;;;2.99;100.00;97975.50;5020602;28;20422;-61
2022/12/08 02:17:40;;;;;;;9.68;5.60;;;;;;;3.18;100.00;98005.81;5004449;28;20086;-62
2022/12/08 02:20:40;;;;;;;10.18;5.15;;;;;;;3.18;100.00;98009.19;5021508;28;20034;-61
2022/12/08 02:23:12;;;;;;;9.07;5.05;;;;;;;3.10;100.00;98001.19;5012602;28;20037;-61
2022/12/08 02:26:28;;;;;;;10.23;5.60;;;;;;;3.14;100.00;97997.50;5018630;28;20031;-62
2022/12/08 02:29:41;;;;;;;9.50;5.22;;;;;;;3.14;100.00;97988.97;4969806;28;20041;-62
2022/12/08 02:32:19;;;;;;;8.88;4.57;;;;;;;3.13;100.00;97989.91;4939637;28;20105;-61
2022/12/08 02:34:48;;;;;;;8.43;5.03;;;;;;;3.13;100.00;97989.91;4991220;28;20061;-62
2022/12/08 02:37:21;;;;;;;9.85;5.10;;;;;;;3.01;100.00;97976.19;5000413;28;20132;-61
2022/12/08 02:40:01;;;;;;;9.82;4.97;;;;;;;3.12;100.00;97988.25;4999645;28;20072;-61
2022/12/08 02:42:51;;;;;;;7.45;4.93;;;;;;;3.11;100.00;97981.50;5001081;28;20053;-62
2022/12/08 02:45:23;;;;;;;8.32;5.00;;;;;;;3.07;100.00;97984.28;5004790;28;20042;-61
2022/12/08 02:47:49;;;;;;;8.82;4.80;;;;;;;3.07;100.00;97971.44;5017133;28;20030;-61
2022/12/08 02:50:15;;;;;;;8.70;3.95;;;;;;;3.14;100.00;97971.81;5000076;28;20057;-61
2022/12/08 02:52:45;;;;;;;7.78;4.70;;;;;;;3.12;100.00;97976.25;5020025;28;20029;-61
2022/12/08 02:55:16;;;;;;;7.07;4.43;;;;;;;2.89;100.00;97932.50;5012012;28;20112;-63
2022/12/08 02:57:59;;;;;;;8.13;4.57;;;;;;;2.71;100.00;97910.75;5000159;28;20466;-63
2022/12/08 03:00:27;;;;;;;8.57;4.45;;;;;;;3.05;100.00;97972.50;5003487;28;20041;-63
2022/12/08 03:03:03;;;;;;;8.18;4.35;;;;;;;2.71;100.00;97920.22;4996870;28;20117;-61
2022/12/08 03:05:53;;;;;;;8.52;4.63;;;;;;;3.05;100.00;97975.06;5015414;28;20036;-61
2022/12/08 03:08:54;;;;;;;9.25;5.30;;;;;;;3.08;100.00;97978.22;4995313;28;20121;-63
2022/12/08 03:11:28;;;;;;;9.68;4.47;;;;;;;3.08;100.00;97969.69;4984169;28;20045;-62
2022/12/08 03:13:57;;;;;;;8.55;3.75;;;;;;;3.10;100.00;97975.50;4996663;28;20054;-61
2022/12/08 03:16:25;;;;;;;8.10;4.37;;;;;;;3.04;100.00;97965.72;5005919;28;20057;-61
2022/12/08 03:19:18;;;;;;;7.83;4.27;;;;;;;3.09;100.00;97971.31;5002262;28;20033;-61
2022/12/08 03:21:48;;;;;;;7.03;4.40;;;;;;;3.04;100.00;97979.34;4985569;28;20049;-63
2022/12/08 03:24:14;;;;;;;7.95;4.03;;;;;;;2.98;100.00;97969.53;4984858;28;20037;-61
2022/12/08 03:26:51;;;;;;;7.88;4.22;;;;;;;2.84;100.00;97960.28;5019293;28;20029;-62
2022/12/08 03:29:16;;;;;;;6.55;4.10;;;;;;;2.96;100.00;97971.41;5002867;28;20037;-62
2022/12/08 03:31:48;;;;;;;7.85;4.25;;;;;;;2.90;100.00;97953.88;5018299;28;20108;-62
2022/12/08 03:34:14;;;;;;;7.65;3.88;;;;;;;2.67;100.00;97920.44;5014390;28;20491;-62
2022/12/08 03:36:39;;;;;;;7.53;4.20;;;;;;;2.96;100.00;97963.72;5016015;28;20022;-61
2022/12/08 03:39:05;;;;;;;7.85;4.35;;;;;;;2.96;100.00;97958.56;5001604;28;20044;-62
2022/12/08 03:41:30;;;;;;;8.15;4.03;;;;;;;2.88;100.00;97948.03;4999894;28;20030;-61
2022/12/08 03:43:58;;;;;;;8.90;4.15;;;;;;;2.87;100.00;97954.91;5003148;28;20026;-61
2022/12/08 03:46:25;;;;;;;7.10;4.07;;;;;;;2.94;100.00;97957.03;5017219;28;20034;-61
2022/12/08 03:48:51;;;;;;;7.50;4.18;;;;;;;2.84;100.00;97954.31;5011316;28;20151;-62
2022/12/08 03:51:17;;;;;;;7.72;3.50;;;;;;;2.78;100.00;97929.91;5006246;28;20092;-63
2022/12/08 03:53:42;;;;;;;8.15;4.10;;;;;;;2.87;100.00;97949.78;5000151;28;20033;-61
2022/12/08 03:56:28;;;;;;;8.55;3.97;;;;;;;2.82;100.00;97944.16;5001582;28;21421;-62
2022/12/08 03:58:54;;;;;;;7.40;4.28;;;;;;;2.79;100.00;97931.56;5016030;28;20549;-63
2022/12/08 04:01:20;;;;;;;7.60;3.97;;;;;;;2.81;100.00;97939.97;4984748;28;20037;-61
2022/12/08 04:03:45;;;;;;;7.25;4.07;;;;;;;2.73;100.00;97932.00;4994179;28;20039;-61
2022/12/08 04:06:11;;;;;;;7.07;4.03;;;;;;;2.74;100.00;97935.38;5010974;28;20097;-61
2022/12/08 04:08:36;;;;;;;7.82;4.30;;;;;;;2.77;100.00;97943.66;5014646;28;20720;-63
2022/12/08 04:11:02;;;;;;;7.55;4.15;;;;;;;2.81;100.00;97937.41;5001649;28;20108;-62
2022/12/08 04:13:27;;;;;;;7.32;4.22;;;;;;;2.81;100.00;97939.13;4995878;28;20037;-62
2022/12/08 04:15:53;;;;;;;6.75;3.97;;;;;;;2.78;100.00;97929.91;4983604;28;20034;-61
2022/12/08 04:18:18;;;;;;;7.78;4.03;;;;;;;2.89;100.00;97937.66;5016534;28;20057;-61
2022/12/08 04:20:44;;;;;;;6.95;3.67;;;;;;;2.54;100.00;97885.50;5012677;28;20052;-62
2022/12/08 04:23:10;;;;;;;7.05;3.97;;;;;;;2.93;100.00;97940.00;5001390;28;20055;-61
2022/12/08 04:25:36;;;;;;;8.15;4.30;;;;;;;2.91;100.00;97937.53;5001919;28;20034;-62
2022/12/08 04:28:02;;;;;;;6.35;3.45;;;;;;;2.97;100.00;97931.94;5010414;28;20037;-63
2022/12/08 04:30:28;;;;;;;6.50;3.67;;;;;;;2.88;100.00;97932.63;5000012;28;20594;-62
2022/12/08 04:32:53;;;;;;;6.88;3.63;;;;;;;2.91;100.00;97932.41;4999665;28;20042;-61
2022/12/08 04:35:19;;;;;;;6.50;3.70;;;;;;;2.88;100.00;97932.63;5011002;28;20667;-63
2022/12/08 04:37:44;;;;;;;8.20;4.38;;;;;;;2.60;100.00;97880.72;5000764;28;20622;-63
2022/12/08 04:40:11;;;;;;;6.85;3.83;;;;;;;2.87;100.00;97928.44;5000389;28;20520;-62
2022/12/08 04:42:36;;;;;;;7.65;3.75;;;;;;;2.53;100.00;97882.13;4998239;28;20034;-64
2022/12/08 04:45:03;;;;;;;7.90;4.28;;;;;;;2.53;100.00;97882.13;4983940;28;20072;-61
2022/12/08 04:47:28;;;;;;;6.03;3.35;;;;;;;2.78;100.00;97929.09;4985863;28;20085;-65
2022/12/08 04:49:53;;;;;;;6.75;3.90;;;;;;;2.57;100.00;97896.34;5002217;28;20641;-62
2022/12/08 04:52:19;;;;;;;6.40;3.35;;;;;;;2.74;100.00;97933.66;4999944;28;20488;-62
2022/12/08 04:54:44;;;;;;;8.80;3.42;;;;;;;2.67;100.00;97927.31;4998255;28;20695;-63
2022/12/08 04:57:10;;;;;;;6.38;3.30;;;;;;;2.70;100.00;97934.78;4983709;28;20040;-61
2022/12/08 04:59:35;;;;;;;5.85;3.30;;;;;;;2.64;100.00;97933.47;5018931;28;20777;-63
2022/12/08 05:02:01;;;;;;;10.00;3.42;;;;;;;2.68;100.00;97929.78;4982601;28;20037;-63
2022/12/08 05:04:26;;;;;;;7.05;3.58;;;;;;;2.59;100.00;97914.22;4980081;28;20088;-62
2022/12/08 05:06:52;;;;;;;7.18;3.33;;;;;;;2.67;100.00;97925.56;4997547;28;20129;-62
2022/12/08 05:09:18;;;;;;;6.43;3.42;;;;;;;2.71;100.00;97921.03;5001685;28;20026;-62
2022/12/08 05:11:43;;;;;;;7.43;3.45;;;;;;;2.68;100.00;97927.22;5000749;28;20100;-63
2022/12/08 05:14:14;;;;;;;6.00;2.88;;;;;;;2.72;100.00;97930.38;4998469;28;20129;-63
2022/12/08 05:16:40;;;;;;;7.95;3.60;;;;;;;2.72;100.00;97932.09;4997288;28;20045;-63
2022/12/08 05:19:05;;;;;;;7.13;3.50;;;;;;;2.63;100.00;97928.47;4986486;28;20037;-63
2022/12/08 05:21:31;;;;;;;8.10;3.20;;;;;;;2.71;100.00;97931.28;5012959;28;20432;-62
2022/12/08 05:23:56;;;;;;;6.20;3.30;;;;;;;2.66;100.00;97923.09;5014351;28;20378;-62
2022/12/08 05:26:21;;;;;;;6.35;3.33;;;;;;;2.73;100.00;97926.84;5015126;28;20113;-61
2022/12/08 05:28:47;;;;;;;6.82;2.90;;;;;;;2.74;100.00;97930.25;5015479;28;20030;-63
2022/12/08 05:31:14;;;;;;;6.72;3.00;;;;;;;2.78;100.00;97929.91;4999569;28;20560;-62
2022/12/08 05:33:39;;;;;;;7.60;3.53;;;;;;;2.71;100.00;97925.34;5017327;28;20247;-62
2022/12/08 05:36:05;;;;;;;6.88;3.30;;;;;;;2.50;100.00;97885.72;5000348;28;20551;-62
2022/12/08 05:38:30;;;;;;;7.20;3.40;;;;;;;2.43;100.00;97870.91;5000532;28;20041;-61
2022/12/08 05:40:56;;;;;;;6.85;3.30;;;;;;;2.65;100.00;97924.88;4987734;28;20083;-62
2022/12/08 05:43:21;;;;;;;7.57;3.33;;;;;;;2.69;100.00;97923.69;4996519;28;20025;-62
2022/12/08 05:45:47;;;;;;;6.43;3.03;;;;;;;2.49;100.00;97885.84;4993784;28;20497;-62
2022/12/08 05:48:12;;;;;;;5.55;3.13;;;;;;;2.64;100.00;97920.66;4982924;28;20038;-61
2022/12/08 05:50:38;;;;;;;6.22;2.95;;;;;;;2.61;100.00;97913.19;5000387;28;20041;-62
2022/12/08 05:53:04;;;;;;;6.10;3.33;;;;;;;2.37;100.00;97879.84;5015486;28;20405;-63
2022/12/08 05:55:29;;;;;;;5.88;3.10;;;;;;;2.41;100.00;97880.44;4981563;28;20042;-62
2022/12/08 05:57:55;;;;;;;5.85;2.80;;;;;;;2.68;100.00;97927.22;4985523;28;20543;-63
2022/12/08 06:00:21;;;;;;;7.45;3.72;;;;;;;2.68;100.00;97931.50;4999587;28;20117;-64
2022/12/08 06:02:46;;;;;;;6.40;3.10;;;;;;;2.58;100.00;97925.41;5014571;28;20029;-62
2022/12/08 06:05:11;;;;;;;6.30;2.97;;;;;;;2.62;100.00;97925.06;5000353;28;20481;-63
2022/12/08 06:07:37;;;;;;;6.80;3.10;;;;;;;2.53;100.00;97905.22;4993764;28;20076;-62
2022/12/08 06:10:03;;;;;;;5.80;2.85;;;;;;;2.65;100.00;97930.00;4995837;28;20029;-62
2022/12/08 06:12:29;;;;;;;8.27;3.08;;;;;;;2.59;100.00;97919.34;4978421;28;20042;-62
2022/12/08 06:14:54;;;;;;;7.05;3.47;;;;;;;2.57;100.00;97919.44;5000345;28;20034;-62
2022/12/08 06:17:20;;;;;;;6.78;3.20;;;;;;;2.55;100.00;97907.66;5011025;28;20123;-61
2022/12/08 06:19:45;;;;;;;6.20;3.00;;;;;;;2.61;100.00;97910.63;4980300;28;20394;-69
2022/12/08 06:22:11;;;;;;;6.13;3.25;;;;;;;2.55;100.00;97916.19;5016014;28;20040;-62
2022/12/08 06:24:36;;;;;;;7.65;3.28;;;;;;;2.67;100.00;97935.03;4978759;28;20484;-62
2022/12/08 06:27:02;;;;;;;6.55;3.13;;;;;;;2.62;100.00;97927.63;5000834;28;20460;-62
2022/12/08 06:29:27;;;;;;;6.07;2.78;;;;;;;2.33;100.00;97881.00;4997571;28;20041;-62
2022/12/08 06:31:53;;;;;;;6.47;3.35;;;;;;;2.62;100.00;97935.34;4995689;28;20160;-61
2022/12/08 06:34:19;;;;;;;6.50;2.97;;;;;;;2.65;100.00;97935.13;4998823;28;20033;-62
2022/12/08 06:36:45;;;;;;;6.28;3.30;;;;;;;2.55;100.00;97934.16;5016392;28;20612;-62
2022/12/08 06:39:10;;;;;;;6.72;2.85;;;;;;;2.61;100.00;97928.59;5000309;28;20072;-62
2022/12/08 06:42:42;;;;;;;6.07;2.85;;;;;;;2.62;100.00;97924.25;4997257;28;20492;-62
2022/12/08 06:44:21;;;;;;;5.43;2.83;;;;;;;2.59;100.00;97919.34;5012159;28;21486;-62
2022/12/08 06:46:47;;;;;;;5.68;3.00;;;;;;;2.67;100.00;97932.44;5013802;28;20038;-62
2022/12/08 06:49:12;;;;;;;8.00;3.00;;;;;;;2.67;100.00;97940.16;4986326;28;20065;-61
2022/12/08 06:51:37;;;;;;;5.72;2.60;;;;;;;2.70;100.00;97932.22;5001848;28;20034;-61
2022/12/08 06:54:03;;;;;;;7.05;2.88;;;;;;;2.56;100.00;97924.72;5016265;28;20034;-62
2022/12/08 06:56:29;;;;;;;6.13;3.08;;;;;;;2.61;100.00;97931.16;5008523;28;20030;-61
2022/12/08 06:58:54;;;;;;;7.05;3.33;;;;;;;2.65;100.00;97922.28;5002317;28;20042;-61
2022/12/08 07:01:20;;;;;;;5.45;2.83;;;;;;;2.59;100.00;97925.31;4984071;28;20022;-62
2022/12/08 07:03:46;;;;;;;5.82;2.70;;;;;;;2.69;100.00;97943.44;5003037;28;20129;-61
2022/12/08 07:06:20;;;;;;;5.38;2.83;;;;;;;2.69;100.00;97946.81;5001846;28;20405;-61
2022/12/08 07:08:46;;;;;;;5.82;2.80;;;;;;;2.64;100.00;97932.66;5017035;28;20034;-62
2022/12/08 07:11:12;;;;;;;5.25;2.53;;;;;;;2.30;100.00;97889.75;5016026;28;20025;-62
2022/12/08 07:13:38;;;;;;;7.30;3.22;;;;;;;2.60;100.00;97931.25;5015073;28;20033;-62
2022/12/08 07:16:08;;;;;;;5.95;2.95;;;;;;;2.61;100.00;97945.72;4982113;28;20041;-61
2022/12/08 07:18:33;;;;;;;7.13;3.15;;;;;;;2.62;100.00;97934.53;5000486;28;20615;-61
2022/12/08 07:21:17;;;;;;;5.80;2.90;;;;;;;2.76;100.00;97952.31;4994616;28;20034;-62
2022/12/08 07:23:45;;;;;;;7.78;2.70;;;;;;;2.76;100.00;97954.06;4999053;28;20030;-62
2022/12/08 07:26:11;;;;;;;6.43;2.90;;;;;;;2.71;100.00;97949.25;5003756;28;20030;-61
2022/12/08 07:28:38;;;;;;;5.40;2.58;;;;;;;2.83;100.00;97953.50;5021649;28;20050;-62
2022/12/08 07:31:04;;;;;;;5.97;2.70;;;;;;;2.86;100.00;97950.69;4990849;28;20621;-62
2022/12/08 07:33:31;;;;;;;5.38;2.80;;;;;;;2.71;100.00;97928.72;5004890;28;20192;-64
2022/12/08 07:35:58;;;;;;;5.80;2.88;;;;;;;2.79;100.00;97954.69;5017191;28;20021;-61
2022/12/08 07:38:24;;;;;;;5.35;2.67;;;;;;;2.85;100.00;97948.28;4983558;28;20041;-62
2022/12/08 07:40:50;;;;;;;5.82;2.78;;;;;;;2.85;100.00;97951.66;5019241;28;20030;-62
2022/12/08 07:43:16;;;;;;;6.00;2.88;;;;;;;2.87;100.00;97954.09;4991443;28;20087;-62
2022/12/08 07:45:41;;;;;;;5.43;2.88;;;;;;;2.92;100.00;97956.31;5006188;28;20030;-62
2022/12/08 07:48:07;;;;;;;5.35;2.70;;;;;;;2.84;100.00;97937.16;5018268;28;20029;-62
2022/12/08 07:50:32;;;;;;;7.47;2.88;;;;;;;2.87;100.00;97933.56;5018360;28;20104;-61
2022/12/08 07:52:58;;;;;;;5.40;2.75;;;;;;;2.88;100.00;97928.31;5005940;28;20381;-62
2022/12/08 07:55:24;;;;;;;4.68;2.17;;;;;;;2.83;100.00;97917.56;4998999;28;20571;-62
2022/12/08 07:57:50;;;;;;;5.93;2.58;;;;;;;3.00;100.00;97938.63;5015615;28;20093;-63
2022/12/08 08:00:16;;;;;;;6.13;2.90;;;;;;;2.96;100.00;97939.78;4998468;28;20543;-63
2022/12/08 08:02:41;;;;;;;6.00;2.65;;;;;;;2.92;100.00;97936.63;5018611;28;20034;-63
2022/12/08 08:05:07;;;;;;;5.80;3.13;;;;;;;2.85;100.00;97933.69;4985686;28;20045;-62
2022/12/08 08:07:33;;;;;;;6.03;2.80;;;;;;;2.87;100.00;97936.94;4997431;28;20032;-61
2022/12/08 08:09:59;;;;;;;6.10;2.85;;;;;;;2.83;100.00;97940.69;4983529;28;20085;-62
2022/12/08 08:12:24;;;;;;;7.22;2.70;;;;;;;2.73;100.00;97911.47;5015251;28;20033;-61
2022/12/08 08:14:50;;;;;;;7.10;3.13;;;;;;;2.77;100.00;97925.69;4999122;28;20057;-63
2022/12/08 08:17:15;;;;;;;6.40;3.05;;;;;;;2.83;100.00;97930.41;5011850;28;20045;-62
2022/12/08 08:19:41;;;;;;;6.53;3.00;;;;;;;2.61;100.00;97891.81;5000600;28;20057;-62
2022/12/08 08:22:06;;;;;;;5.90;3.03;;;;;;;2.90;100.00;97933.31;4999049;28;20034;-63
2022/12/08 08:24:31;;;;;;;5.72;2.85;;;;;;;2.59;100.00;97870.56;5003745;28;20034;-62
2022/12/08 08:26:57;;;;;;;6.97;3.10;;;;;;;2.85;100.00;97925.97;5018326;28;20126;-63
2022/12/08 08:29:22;;;;;;;7.20;2.95;;;;;;;2.91;100.00;97923.88;5013350;28;20040;-63
2022/12/08 08:31:48;;;;;;;5.88;2.60;;;;;;;2.50;100.00;97867.78;5013249;28;20482;-62
2022/12/08 08:34:14;;;;;;;6.35;2.55;;;;;;;2.68;100.00;97887.88;4987029;28;20444;-62
2022/12/08 08:36:40;;;;;;;6.68;3.30;;;;;;;2.89;100.00;97924.81;5001584;28;20037;-61
2022/12/08 08:39:05;;;;;;;8.07;3.60;;;;;;;2.83;100.00;97938.09;5002356;28;20037;-64
2022/12/08 08:41:31;;;;;;;6.90;2.70;;;;;;;2.86;100.00;97931.91;5014511;28;20794;-63
2022/12/08 08:43:56;;;;;;;6.38;3.42;;;;;;;2.85;100.00;97940.56;4981083;28;20564;-62
2022/12/08 08:46:22;;;;;;;6.82;3.28;;;;;;;2.81;100.00;97939.97;5015066;28;20041;-64
2022/12/08 08:48:47;;;;;;;7.22;3.30;;;;;;;2.77;100.00;97940.28;4982942;28;20029;-63
2022/12/08 08:51:13;;;;;;;8.63;3.30;;;;;;;2.82;100.00;97931.31;5002299;28;20034;-62
2022/12/08 08:53:39;;;;;;;6.07;2.97;;;;;;;2.86;100.00;97931.91;5017476;28;20074;-61
2022/12/08 08:56:12;;;;;;;8.43;3.30;;;;;;;2.74;100.00;97925.94;4996624;28;20029;-62
2022/12/08 08:58:38;;;;;;;5.18;2.65;;;;;;;2.81;100.00;97918.59;4997884;28;20507;-62
2022/12/08 09:01:04;;;;;;;6.32;3.10;;;;;;;2.93;100.00;97927.97;5022336;28;20037;-63
2022/12/08 09:03:29;;;;;;;6.90;3.50;;;;;;;2.92;100.00;97931.47;5016554;28;20453;-64
2022/12/08 09:05:55;;;;;;;5.80;2.70;;;;;;;2.96;100.00;97927.75;4988006;28;20034;-63
2022/12/08 09:08:21;;;;;;;7.68;3.47;;;;;;;3.00;100.00;97929.16;5016467;28;20605;-62
2022/12/08 09:10:46;;;;;;;9.25;4.47;;;;;;;3.06;99.50;97925.31;5017782;28;20049;-62
2022/12/08 09:13:12;;;;;;;10.50;4.40;;;;;;;3.11;97.32;97925.78;5014709;28;20037;-63
2022/12/08 09:15:37;;;;;;;11.15;5.38;;;;;;;3.16;96.85;97925.44;4999599;28;20038;-62
2022/12/08 09:18:05;;;;;;;13.88;5.90;;;;;;;3.10;97.78;97928.47;4984970;28;20065;-62
2022/12/08 09:20:31;;;;;;;13.13;7.00;;;;;;;3.17;98.11;97929.66;4999241;28;20035;-63
2022/12/08 09:22:56;;;;;;;12.77;5.78;;;;;;;3.18;98.56;97924.41;5007111;28;20072;-63
2022/12/08 09:25:22;;;;;;;7.70;4.05;;;;;;;2.84;99.37;97875.53;5005055;28;20034;-63
2022/12/08 09:27:47;;;;;;;10.07;5.20;;;;;;;3.08;99.09;97921.72;5016284;28;20026;-62
2022/12/08 09:30:13;;;;;;;9.70;4.78;;;;;;;3.11;99.08;97917.28;5016035;28;20037;-63
2022/12/08 09:32:39;;;;;;;7.32;4.20;;;;;;;3.19;99.55;97920.06;5001377;28;20060;-63
2022/12/08 09:35:04;;;;;;;7.05;3.60;;;;;;;3.17;99.76;97915.03;4998464;28;20048;-62
2022/12/08 09:37:30;;;;;;;7.22;3.45;;;;;;;3.13;98.85;97905.94;5003788;28;20029;-61
2022/12/08 09:39:56;;;;;;;6.88;3.15;;;;;;;3.20;98.34;97919.97;4980694;28;20416;-62
2022/12/08 09:42:46;;;;;;;7.55;3.22;;;;;;;2.88;96.56;97871.81;4998913;28;20418;-63
2022/12/08 09:45:13;;;;;;;5.32;2.60;;;;;;;3.26;95.71;97921.25;5013340;28;20040;-62
2022/12/08 09:47:42;;;;;;;6.68;2.90;;;;;;;3.34;94.23;97918.94;5001612;28;20030;-61
2022/12/08 09:50:19;;;;;;;5.28;2.90;;;;;;;3.42;95.13;97919.16;4989614;28;20172;-62
2022/12/08 09:52:58;;;;;;;7.70;3.33;;;;;;;3.42;94.84;97915.78;5016172;28;20253;-61
2022/12/08 09:55:38;;;;;;;5.55;2.60;;;;;;;3.48;96.24;97910.16;5002682;28;20037;-63
2022/12/08 09:58:08;;;;;;;5.30;2.85;;;;;;;3.57;97.14;97898.38;5016234;28;20049;-61
2022/12/08 10:00:33;;;;;;;9.23;4.50;;;;;;;3.59;95.95;97881.88;5013267;28;20038;-61
2022/12/08 10:02:59;;;;;;;6.47;3.15;;;;;;;3.66;93.63;97903.59;5014274;28;20732;-62
2022/12/08 10:05:25;;;;;;;6.22;2.97;;;;;;;3.44;93.70;97849.66;5017122;28;20042;-63
2022/12/08 10:08:04;;;;;;;7.00;3.40;;;;;;;3.81;94.71;97895.63;5014786;28;20030;-61
2022/12/08 10:10:34;;;;;;;7.93;4.18;;;;;;;3.79;95.11;97897.50;5013276;28;20109;-61
2022/12/08 10:13:21;;;;;;;8.60;5.28;;;;;;;3.64;93.96;97878.97;4986906;28;20088;-62
2022/12/08 10:16:04;;;;;;;8.32;4.28;;;;;;;3.70;92.72;97880.22;4994571;28;20038;-61
2022/12/08 10:18:32;;;;;;;6.32;2.97;;;;;;;3.61;93.71;97863.75;4998217;28;20072;-61
2022/12/08 10:21:25;;;;;;;5.57;2.92;;;;;;;3.75;93.19;97870.41;4984024;28;20034;-61
2022/12/08 10:23:54;;;;;;;6.72;3.00;;;;;;;3.80;93.75;97874.25;4991697;28;20131;-62
2022/12/08 10:26:21;;;;;;;9.10;4.57;;;;;;;3.82;93.98;97872.38;5004204;28;20063;-62
2022/12/08 10:28:47;;;;;;;9.98;6.53;;;;;;;3.80;94.85;97863.97;4995579;28;20400;-62
2022/12/08 10:31:21;;;;;;;11.52;5.63;;;;;;;3.78;95.81;97862.47;5003739;28;20438;-63
2022/12/08 10:33:51;;;;;;;10.65;5.10;;;;;;;3.84;96.30;97869.69;4973059;28;20056;-63
2022/12/08 10:36:17;;;;;;;6.68;3.38;;;;;;;3.91;93.17;97876.00;5014661;28;20101;-64
2022/12/08 10:38:42;;;;;;;6.80;3.40;;;;;;;3.92;92.79;97863.94;4988839;28;20220;-63
2022/12/08 10:41:08;;;;;;;6.82;3.65;;;;;;;4.02;93.83;97885.44;4997551;28;20033;-63
2022/12/08 10:43:36;;;;;;;8.30;4.55;;;;;;;4.03;94.67;97866.47;4997675;28;20727;-64
2022/12/08 10:46:19;;;;;;;10.10;4.50;;;;;;;4.07;95.56;97869.63;4997255;28;20169;-65
2022/12/08 10:48:53;;;;;;;7.32;4.10;;;;;;;4.12;96.26;97870.06;5008795;28;20038;-63
2022/12/08 10:51:23;;;;;;;7.68;3.88;;;;;;;3.87;96.08;97828.31;4999361;28;20148;-63
2022/12/08 10:53:48;;;;;;;;;;;;;;;4.26;94.80;97874.94;4996742;28;20026;-63
2022/12/08 10:56:15;;;;;;;21.05;9.18;;;;;;;4.16;93.65;97864.59;5013087;28;20292;-64
2022/12/08 10:58:42;;;;;;;7.95;4.65;;;;;;;4.22;92.39;97865.84;5008934;28;20515;-64
2022/12/08 11:01:20;;;;;;;7.85;4.20;;;;;;;4.26;92.46;97856.13;4994866;28;20164;-63
2022/12/08 11:04:00;;;;;;;6.53;3.28;;;;;;;4.24;92.32;97851.09;4997416;28;20037;-63
2022/12/08 11:06:34;;;;;;;5.70;2.50;;;;;;;4.24;90.57;97845.94;5012748;28;20604;-63
2022/12/08 11:09:03;;;;;;;5.75;2.80;;;;;;;4.20;89.34;97837.66;5012288;28;20499;-62
2022/12/08 11:11:57;;;;;;;6.00;2.92;;;;;;;4.35;90.67;97851.03;5012170;28;20034;-64
2022/12/08 11:14:32;;;;;;;6.38;2.75;;;;;;;4.07;91.31;97803.56;4994675;28;20052;-67
2022/12/08 11:17:12;;;;;;;7.10;2.83;;;;;;;4.34;89.23;97831.38;5012130;28;20026;-63
2022/12/08 11:20:01;;;;;;;5.13;2.55;;;;;;;4.49;86.71;97842.22;4996425;28;20091;-65
2022/12/08 11:22:32;;;;;;;5.45;2.83;;;;;;;4.55;85.31;97838.31;5003592;28;20112;-64
2022/12/08 11:25:06;;;;;;;6.18;2.55;;;;;;;4.57;85.38;97849.31;4982297;28;20166;-65
2022/12/08 11:27:35;;;;;;;7.45;2.40;;;;;;;4.59;86.91;97839.69;4998369;28;20026;-65
2022/12/08 11:30:02;;;;;;;6.63;3.20;;;;;;;4.73;87.15;97847.09;4996522;28;20095;-63
2022/12/08 11:32:28;;;;;;;6.80;3.42;;;;;;;4.82;85.63;97836.03;5013093;28;20119;-64
2022/12/08 11:35:06;;;;;;;7.22;2.67;;;;;;;4.55;85.56;97797.94;4972103;28;20604;-63
2022/12/08 11:37:38;;;;;;;7.18;3.55;;;;;;;4.81;85.11;97836.97;4987158;28;20489;-64
2022/12/08 11:40:13;;;;;;;5.88;2.85;;;;;;;4.54;84.79;97787.75;4997537;28;20029;-64
2022/12/08 11:42:51;;;;;;;6.35;2.72;;;;;;;4.82;85.35;97830.88;5012313;28;20026;-65
2022/12/08 11:45:23;;;;;;;5.70;2.63;;;;;;;4.91;83.63;97828.47;4969873;28;20038;-64